sensor_id;sensor_type;location;lat;lon;timestamp;pressure;altitude;pressure_sealevel;temperature;humidity
49759;BME280;70329;45.524;10.194;2024-02-23T00:01:43;98807.44;;;9.57;100.00
49759;BME280;70329;45.524;10.194;2024-02-23T00:04:12;98800.34;;;9.56;100.00
49759;BME280;70329;45.524;10.194;2024-02-23T00:06:40;98787.97;;;9.45;100.00
49759;BME280;70329;45.524;10.194;2024-02-23T00:09:06;98780.38;;;9.42;100.00
49759;BME280;70329;45.524;10.194;2024-02-23T00:11:33;98777.66;;;9.42;100.00
49759;BME280;70329;45.524;10.194;2024-02-23T00:14:05;98764.19;;;9.45;100.00
49759;BME280;70329;45.524;10.194;2024-02-23T00:16:31;98762.69;;;9.53;100.00
49759;BME280;70329;45.524;10.194;2024-02-23T00:19:03;98755.78;;;9.55;100.00
49759;BME280;70329;45.524;10.194;2024-02-23T00:21:29;98757.91;;;9.72;100.00
49759;BME280;70329;45.524;10.194;2024-02-23T00:23:57;98754.38;;;9.58;100.00
49759;BME280;70329;45.524;10.194;2024-02-23T00:26:24;98752.66;;;9.48;100.00
49759;BME280;70329;45.524;10.194;2024-02-23T00:28:50;98749.31;;;9.51;100.00
49759;BME280;70329;45.524;10.194;2024-02-23T00:31:17;98735.78;;;9.46;100.00
49759;BME280;70329;45.524;10.194;2024-02-23T00:33:43;98732.22;;;9.46;100.00
49759;BME280;70329;45.524;10.194;2024-02-23T00:36:10;98738.69;;;9.50;100.00
49759;BME280;70329;45.524;10.194;2024-02-23T00:38:37;98727.25;;;9.48;100.00
49759;BME280;70329;45.524;10.194;2024-02-23T00:41:05;98725.03;;;9.50;100.00
49759;BME280;70329;45.524;10.194;2024-02-23T00:43:37;98708.22;;;9.43;100.00
49759;BME280;70329;45.524;10.194;2024-02-23T00:46:04;98713.59;;;9.34;100.00
49759;BME280;70329;45.524;10.194;2024-02-23T00:48:30;98713.38;;;9.30;100.00
49759;BME280;70329;45.524;10.194;2024-02-23T00:50:57;98707.41;;;9.42;100.00
49759;BME280;70329;45.524;10.194;2024-02-23T00:53:24;98700.84;;;9.43;100.00
49759;BME280;70329;45.524;10.194;2024-02-23T00:55:50;98693.16;;;9.45;100.00
49759;BME280;70329;45.524;10.194;2024-02-23T00:58:18;98690.72;;;9.57;100.00
49759;BME280;70329;45.524;10.194;2024-02-23T01:00:45;98675.00;;;9.76;100.00
49759;BME280;70329;45.524;10.194;2024-02-23T01:03:11;98675.38;;;9.83;100.00
49759;BME280;70329;45.524;10.194;2024-02-23T01:05:38;98660.81;;;9.74;100.00
49759;BME280;70329;45.524;10.194;2024-02-23T01:08:05;98665.19;;;9.75;100.00
49759;BME280;70329;45.524;10.194;2024-02-23T01:10:32;98661.63;;;9.75;100.00
49759;BME280;70329;45.524;10.194;2024-02-23T01:12:58;98659.63;;;9.67;100.00
49759;BME280;70329;45.524;10.194;2024-02-23T01:15:26;98656.59;;;9.68;100.00
49759;BME280;70329;45.524;10.194;2024-02-23T01:17:53;98641.09;;;9.64;100.00
49759;BME280;70329;45.524;10.194;2024-02-23T01:20:19;98644.97;;;9.63;100.00
49759;BME280;70329;45.524;10.194;2024-02-23T01:22:46;98634.72;;;9.68;100.00
49759;BME280;70329;45.524;10.194;2024-02-23T01:25:14;98639.59;;;9.71;100.00
49759;BME280;70329;45.524;10.194;2024-02-23T01:27:41;98598.25;;;9.73;100.00
49759;BME280;70329;45.524;10.194;2024-02-23T01:30:10;98596.84;;;9.75;100.00
49759;BME280;70329;45.524;10.194;2024-02-23T01:32:38;98595.47;;;9.86;100.00
49759;BME280;70329;45.524;10.194;2024-02-23T01:35:06;98589.41;;;9.89;100.00
49759;BME280;70329;45.524;10.194;2024-02-23T01:37:33;98580.19;;;9.85;100.00
49759;BME280;70329;45.524;10.194;2024-02-23T01:39:59;98575.53;;;9.86;100.00
49759;BME280;70329;45.524;10.194;2024-02-23T01:42:25;98574.53;;;9.82;100.00
49759;BME280;70329;45.524;10.194;2024-02-23T01:44:52;98570.88;;;9.86;100.00
49759;BME280;70329;45.524;10.194;2024-02-23T01:47:18;98571.28;;;9.80;100.00
49759;BME280;70329;45.524;10.194;2024-02-23T01:49:47;98570.50;;;9.79;100.00
49759;BME280;70329;45.524;10.194;2024-02-23T01:52:15;98563.41;;;9.78;100.00
49759;BME280;70329;45.524;10.194;2024-02-23T01:54:43;98550.75;;;9.82;100.00
49759;BME280;70329;45.524;10.194;2024-02-23T01:57:10;98545.44;;;9.86;100.00
49759;BME280;70329;45.524;10.194;2024-02-23T01:59:38;98546.25;;;9.86;100.00
49759;BME280;70329;45.524;10.194;2024-02-23T02:02:04;98531.91;;;9.81;100.00
49759;BME280;70329;45.524;10.194;2024-02-23T02:04:31;98521.16;;;9.62;100.00
49759;BME280;70329;45.524;10.194;2024-02-23T02:06:59;98521.34;;;9.66;100.00
49759;BME280;70329;45.524;10.194;2024-02-23T02:09:27;98527.84;;;9.56;100.00
49759;BME280;70329;45.524;10.194;2024-02-23T02:11:54;98513.00;;;9.49;100.00
49759;BME280;70329;45.524;10.194;2024-02-23T02:14:20;98528.34;;;9.58;100.00
49759;BME280;70329;45.524;10.194;2024-02-23T02:16:47;98506.13;;;9.73;100.00
49759;BME280;70329;45.524;10.194;2024-02-23T02:19:14;98504.16;;;9.87;100.00
49759;BME280;70329;45.524;10.194;2024-02-23T02:21:41;98493.44;;;10.00;100.00
49759;BME280;70329;45.524;10.194;2024-02-23T02:24:09;98486.78;;;10.14;100.00
49759;BME280;70329;45.524;10.194;2024-02-23T02:26:37;98468.47;;;10.15;100.00
49759;BME280;70329;45.524;10.194;2024-02-23T02:29:03;98465.41;;;10.16;100.00
49759;BME280;70329;45.524;10.194;2024-02-23T02:31:30;98452.25;;;10.18;100.00
49759;BME280;70329;45.524;10.194;2024-02-23T02:34:02;98451.91;;;10.20;100.00
49759;BME280;70329;45.524;10.194;2024-02-23T02:36:29;98457.84;;;10.13;100.00
49759;BME280;70329;45.524;10.194;2024-02-23T02:38:55;98454.34;;;10.21;100.00
49759;BME280;70329;45.524;10.194;2024-02-23T02:41:24;98442.78;;;10.24;100.00
49759;BME280;70329;45.524;10.194;2024-02-23T02:43:54;98446.63;;;10.23;100.00
49759;BME280;70329;45.524;10.194;2024-02-23T02:46:21;98449.09;;;10.11;100.00
49759;BME280;70329;45.524;10.194;2024-02-23T02:48:47;98434.59;;;10.11;100.00
49759;BME280;70329;45.524;10.194;2024-02-23T02:51:14;98426.72;;;10.09;100.00
49759;BME280;70329;45.524;10.194;2024-02-23T02:53:41;98422.44;;;10.17;100.00
49759;BME280;70329;45.524;10.194;2024-02-23T02:56:07;98421.00;;;10.19;100.00
49759;BME280;70329;45.524;10.194;2024-02-23T02:58:36;98428.25;;;10.15;100.00
49759;BME280;70329;45.524;10.194;2024-02-23T03:01:03;98424.56;;;10.20;100.00
49759;BME280;70329;45.524;10.194;2024-02-23T03:03:30;98422.78;;;10.15;100.00
49759;BME280;70329;45.524;10.194;2024-02-23T03:05:56;98408.75;;;10.17;100.00
49759;BME280;70329;45.524;10.194;2024-02-23T03:08:23;98416.50;;;10.15;100.00
49759;BME280;70329;45.524;10.194;2024-02-23T03:10:49;98407.50;;;10.23;100.00
49759;BME280;70329;45.524;10.194;2024-02-23T03:13:16;98422.81;;;10.24;100.00
49759;BME280;70329;45.524;10.194;2024-02-23T03:15:43;98403.66;;;10.24;100.00
49759;BME280;70329;45.524;10.194;2024-02-23T03:18:10;98400.25;;;10.18;100.00
49759;BME280;70329;45.524;10.194;2024-02-23T03:20:40;98414.50;;;10.07;100.00
49759;BME280;70329;45.524;10.194;2024-02-23T03:23:07;98400.97;;;10.02;100.00
49759;BME280;70329;45.524;10.194;2024-02-23T03:25:33;98393.06;;;10.00;100.00
49759;BME280;70329;45.524;10.194;2024-02-23T03:28:00;98392.59;;;10.07;100.00
49759;BME280;70329;45.524;10.194;2024-02-23T03:30:26;98382.03;;;10.14;100.00
49759;BME280;70329;45.524;10.194;2024-02-23T03:32:54;98386.41;;;10.15;100.00
49759;BME280;70329;45.524;10.194;2024-02-23T03:35:21;98368.59;;;10.34;100.00
49759;BME280;70329;45.524;10.194;2024-02-23T03:37:48;98364.25;;;10.33;100.00
49759;BME280;70329;45.524;10.194;2024-02-23T03:40:14;98358.63;;;10.30;100.00
49759;BME280;70329;45.524;10.194;2024-02-23T03:42:43;98354.09;;;10.25;100.00
49759;BME280;70329;45.524;10.194;2024-02-23T03:45:09;98342.69;;;10.32;100.00
49759;BME280;70329;45.524;10.194;2024-02-23T03:47:36;98333.84;;;10.35;100.00
49759;BME280;70329;45.524;10.194;2024-02-23T03:50:05;98328.50;;;10.21;100.00
49759;BME280;70329;45.524;10.194;2024-02-23T03:52:32;98320.47;;;10.33;100.00
49759;BME280;70329;45.524;10.194;2024-02-23T03:54:59;98315.00;;;10.33;100.00
49759;BME280;70329;45.524;10.194;2024-02-23T03:57:26;98306.47;;;10.35;100.00
49759;BME280;70329;45.524;10.194;2024-02-23T03:59:53;98302.13;;;10.42;100.00
49759;BME280;70329;45.524;10.194;2024-02-23T04:02:19;98292.84;;;10.52;100.00
49759;BME280;70329;45.524;10.194;2024-02-23T04:04:47;98295.56;;;10.61;100.00
49759;BME280;70329;45.524;10.194;2024-02-23T04:07:15;98304.44;;;10.66;100.00
49759;BME280;70329;45.524;10.194;2024-02-23T04:09:42;98295.56;;;10.61;100.00
49759;BME280;70329;45.524;10.194;2024-02-23T04:12:08;98292.34;;;10.59;100.00
49759;BME280;70329;45.524;10.194;2024-02-23T04:14:35;98300.06;;;10.57;100.00
49759;BME280;70329;45.524;10.194;2024-02-23T04:17:01;98298.59;;;10.50;100.00
49759;BME280;70329;45.524;10.194;2024-02-23T04:19:28;98314.06;;;10.38;100.00
49759;BME280;70329;45.524;10.194;2024-02-23T04:21:57;98323.56;;;10.40;100.00
49759;BME280;70329;45.524;10.194;2024-02-23T04:24:25;98321.47;;;10.37;100.00
49759;BME280;70329;45.524;10.194;2024-02-23T04:26:52;98316.47;;;10.39;100.00
49759;BME280;70329;45.524;10.194;2024-02-23T04:29:18;98331.44;;;10.42;100.00
49759;BME280;70329;45.524;10.194;2024-02-23T04:31:45;98333.88;;;10.43;100.00
49759;BME280;70329;45.524;10.194;2024-02-23T04:34:11;98330.34;;;10.51;100.00
49759;BME280;70329;45.524;10.194;2024-02-23T04:36:38;98345.13;;;10.50;100.00
49759;BME280;70329;45.524;10.194;2024-02-23T04:39:04;98353.97;;;10.47;100.00
49759;BME280;70329;45.524;10.194;2024-02-23T04:41:32;98346.41;;;10.44;100.00
49759;BME280;70329;45.524;10.194;2024-02-23T04:43:59;98348.66;;;10.42;100.00
49759;BME280;70329;45.524;10.194;2024-02-23T04:46:25;98347.41;;;10.48;100.00
49759;BME280;70329;45.524;10.194;2024-02-23T04:48:52;98356.25;;;10.45;100.00
49759;BME280;70329;45.524;10.194;2024-02-23T04:51:18;98356.69;;;10.39;100.00
49759;BME280;70329;45.524;10.194;2024-02-23T04:53:47;98344.97;;;10.38;100.00
49759;BME280;70329;45.524;10.194;2024-02-23T04:56:14;98341.75;;;10.45;100.00
49759;BME280;70329;45.524;10.194;2024-02-23T04:58:43;98338.34;;;10.39;100.00
49759;BME280;70329;45.524;10.194;2024-02-23T05:01:09;98340.44;;;10.42;100.00
49759;BME280;70329;45.524;10.194;2024-02-23T05:03:36;98344.31;;;10.33;100.00
49759;BME280;70329;45.524;10.194;2024-02-23T05:06:03;98350.41;;;10.30;100.00
49759;BME280;70329;45.524;10.194;2024-02-23T05:08:30;98342.66;;;10.23;100.00
49759;BME280;70329;45.524;10.194;2024-02-23T05:10:57;98330.88;;;10.14;100.00
49759;BME280;70329;45.524;10.194;2024-02-23T05:13:24;98339.91;;;10.15;100.00
49759;BME280;70329;45.524;10.194;2024-02-23T05:15:54;98343.69;;;10.05;100.00
49759;BME280;70329;45.524;10.194;2024-02-23T05:18:23;98341.06;;;9.91;100.00
49759;BME280;70329;45.524;10.194;2024-02-23T05:20:49;98336.84;;;9.85;100.00
49759;BME280;70329;45.524;10.194;2024-02-23T05:23:16;98339.16;;;10.01;100.00
49759;BME280;70329;45.524;10.194;2024-02-23T05:25:43;98348.03;;;10.06;100.00
49759;BME280;70329;45.524;10.194;2024-02-23T05:28:09;98332.81;;;10.14;100.00
49759;BME280;70329;45.524;10.194;2024-02-23T05:30:36;98339.41;;;10.13;100.00
49759;BME280;70329;45.524;10.194;2024-02-23T05:33:06;98325.59;;;10.18;100.00
49759;BME280;70329;45.524;10.194;2024-02-23T05:35:34;98311.09;;;10.17;100.00
49759;BME280;70329;45.524;10.194;2024-02-23T05:38:02;98306.44;;;10.18;100.00
49759;BME280;70329;45.524;10.194;2024-02-23T05:40:29;98309.97;;;10.18;100.00
49759;BME280;70329;45.524;10.194;2024-02-23T05:42:56;98315.75;;;10.17;100.00
49759;BME280;70329;45.524;10.194;2024-02-23T05:45:23;98311.56;;;10.19;100.00
49759;BME280;70329;45.524;10.194;2024-02-23T05:47:50;98309.81;;;10.15;100.00
49759;BME280;70329;45.524;10.194;2024-02-23T05:50:20;98311.84;;;10.09;100.00
49759;BME280;70329;45.524;10.194;2024-02-23T05:52:48;98300.56;;;10.11;100.00
49759;BME280;70329;45.524;10.194;2024-02-23T05:55:15;98300.28;;;10.12;100.00
49759;BME280;70329;45.524;10.194;2024-02-23T05:57:42;98307.41;;;10.13;100.00
49759;BME280;70329;45.524;10.194;2024-02-23T06:00:10;98307.19;;;10.10;100.00
49759;BME280;70329;45.524;10.194;2024-02-23T06:02:37;98309.00;;;10.14;100.00
49759;BME280;70329;45.524;10.194;2024-02-23T06:05:05;98311.72;;;10.14;100.00
49759;BME280;70329;45.524;10.194;2024-02-23T06:07:34;98308.78;;;10.11;100.00
49759;BME280;70329;45.524;10.194;2024-02-23T06:10:02;98299.00;;;10.10;100.00
49759;BME280;70329;45.524;10.194;2024-02-23T06:12:28;98306.19;;;10.06;100.00
49759;BME280;70329;45.524;10.194;2024-02-23T06:14:55;98296.22;;;10.01;100.00
49759;BME280;70329;45.524;10.194;2024-02-23T06:17:22;98307.13;;;9.92;100.00
49759;BME280;70329;45.524;10.194;2024-02-23T06:19:50;98303.41;;;9.88;100.00
49759;BME280;70329;45.524;10.194;2024-02-23T06:22:18;98293.28;;;9.89;100.00
49759;BME280;70329;45.524;10.194;2024-02-23T06:24:49;98284.16;;;10.02;100.00
49759;BME280;70329;45.524;10.194;2024-02-23T06:27:15;98284.38;;;10.14;100.00
49759;BME280;70329;45.524;10.194;2024-02-23T06:29:42;98282.56;;;10.10;100.00
49759;BME280;70329;45.524;10.194;2024-02-23T06:32:08;98273.28;;;10.19;100.00
49759;BME280;70329;45.524;10.194;2024-02-23T06:34:35;98281.66;;;10.23;100.00
49759;BME280;70329;45.524;10.194;2024-02-23T06:37:01;98278.75;;;10.19;100.00
49759;BME280;70329;45.524;10.194;2024-02-23T06:39:28;98269.38;;;10.12;100.00
49759;BME280;70329;45.524;10.194;2024-02-23T06:41:56;98270.97;;;10.04;100.00
49759;BME280;70329;45.524;10.194;2024-02-23T06:44:26;98262.78;;;10.04;100.00
49759;BME280;70329;45.524;10.194;2024-02-23T06:46:52;98261.97;;;10.12;100.00
49759;BME280;70329;45.524;10.194;2024-02-23T06:49:19;98247.69;;;10.15;100.00
49759;BME280;70329;45.524;10.194;2024-02-23T06:51:45;98246.28;;;10.26;100.00
49759;BME280;70329;45.524;10.194;2024-02-23T06:54:12;98245.13;;;10.27;100.00
49759;BME280;70329;45.524;10.194;2024-02-23T06:56:38;98249.66;;;10.23;100.00
49759;BME280;70329;45.524;10.194;2024-02-23T06:59:06;98250.91;;;10.17;100.00
49759;BME280;70329;45.524;10.194;2024-02-23T07:01:33;98245.28;;;10.22;100.00
49759;BME280;70329;45.524;10.194;2024-02-23T07:04:01;98235.31;;;10.18;100.00
49759;BME280;70329;45.524;10.194;2024-02-23T07:06:27;98239.13;;;10.08;100.00
49759;BME280;70329;45.524;10.194;2024-02-23T07:08:56;98235.91;;;10.06;100.00
49759;BME280;70329;45.524;10.194;2024-02-23T07:11:23;98256.34;;;10.09;100.00
49759;BME280;70329;45.524;10.194;2024-02-23T07:13:49;98248.31;;;10.12;100.00
49759;BME280;70329;45.524;10.194;2024-02-23T07:16:18;98264.53;;;10.09;100.00
49759;BME280;70329;45.524;10.194;2024-02-23T07:18:45;98258.78;;;10.10;100.00
49759;BME280;70329;45.524;10.194;2024-02-23T07:21:11;98265.84;;;10.11;100.00
49759;BME280;70329;45.524;10.194;2024-02-23T07:23:38;98270.81;;;10.09;100.00
49759;BME280;70329;45.524;10.194;2024-02-23T07:26:05;98267.91;;;10.06;100.00
49759;BME280;70329;45.524;10.194;2024-02-23T07:28:31;98279.34;;;10.08;100.00
49759;BME280;70329;45.524;10.194;2024-02-23T07:30:58;98277.75;;;10.07;100.00
49759;BME280;70329;45.524;10.194;2024-02-23T07:33:26;98284.31;;;10.06;100.00
49759;BME280;70329;45.524;10.194;2024-02-23T07:35:52;98293.66;;;10.05;100.00
49759;BME280;70329;45.524;10.194;2024-02-23T07:38:19;98306.06;;;10.02;100.00
49759;BME280;70329;45.524;10.194;2024-02-23T07:40:45;98320.50;;;10.03;100.00
49759;BME280;70329;45.524;10.194;2024-02-23T07:43:12;98320.66;;;9.98;100.00
49759;BME280;70329;45.524;10.194;2024-02-23T07:45:39;98315.63;;;9.91;100.00
49759;BME280;70329;45.524;10.194;2024-02-23T07:48:06;98304.22;;;9.89;100.00
49759;BME280;70329;45.524;10.194;2024-02-23T07:50:35;98325.28;;;9.88;100.00
49759;BME280;70329;45.524;10.194;2024-02-23T07:53:02;98327.22;;;9.88;100.00
49759;BME280;70329;45.524;10.194;2024-02-23T07:55:29;98323.97;;;9.86;100.00
49759;BME280;70329;45.524;10.194;2024-02-23T07:57:56;98328.34;;;9.87;100.00
49759;BME280;70329;45.524;10.194;2024-02-23T08:00:26;98327.19;;;9.79;100.00
49759;BME280;70329;45.524;10.194;2024-02-23T08:02:53;98320.91;;;9.79;100.00
49759;BME280;70329;45.524;10.194;2024-02-23T08:05:22;98311.72;;;9.75;100.00
49759;BME280;70329;45.524;10.194;2024-02-23T08:07:50;98323.47;;;9.75;100.00
49759;BME280;70329;45.524;10.194;2024-02-23T08:10:16;98330.84;;;9.75;100.00
49759;BME280;70329;45.524;10.194;2024-02-23T08:12:43;98336.97;;;9.80;100.00
49759;BME280;70329;45.524;10.194;2024-02-23T08:15:09;98346.28;;;9.71;100.00
49759;BME280;70329;45.524;10.194;2024-02-23T08:17:36;98352.22;;;9.73;100.00
49759;BME280;70329;45.524;10.194;2024-02-23T08:20:03;98350.25;;;9.65;100.00
49759;BME280;70329;45.524;10.194;2024-02-23T08:22:30;98343.63;;;9.57;100.00
49759;BME280;70329;45.524;10.194;2024-02-23T08:24:58;98341.06;;;9.61;100.00
49759;BME280;70329;45.524;10.194;2024-02-23T08:27:24;98340.63;;;9.67;100.00
49759;BME280;70329;45.524;10.194;2024-02-23T08:29:51;98335.66;;;9.69;100.00
49759;BME280;70329;45.524;10.194;2024-02-23T08:32:17;98334.72;;;9.74;100.00
49759;BME280;70329;45.524;10.194;2024-02-23T08:34:44;98327.31;;;9.74;100.00
49759;BME280;70329;45.524;10.194;2024-02-23T08:37:11;98331.03;;;9.78;100.00
49759;BME280;70329;45.524;10.194;2024-02-23T08:39:37;98326.88;;;9.81;100.00
49759;BME280;70329;45.524;10.194;2024-02-23T08:42:05;98320.31;;;9.90;100.00
49759;BME280;70329;45.524;10.194;2024-02-23T08:44:32;98319.69;;;9.93;100.00
49759;BME280;70329;45.524;10.194;2024-02-23T08:46:58;98318.09;;;10.01;100.00
49759;BME280;70329;45.524;10.194;2024-02-23T08:49:25;98316.00;;;9.98;100.00
49759;BME280;70329;45.524;10.194;2024-02-23T08:51:51;98315.38;;;10.01;100.00
49759;BME280;70329;45.524;10.194;2024-02-23T08:54:18;98322.31;;;10.07;100.00
49759;BME280;70329;45.524;10.194;2024-02-23T08:56:44;98315.28;;;10.15;100.00
49759;BME280;70329;45.524;10.194;2024-02-23T08:59:12;98317.69;;;10.16;100.00
49759;BME280;70329;45.524;10.194;2024-02-23T09:01:39;98318.34;;;10.13;100.00
49759;BME280;70329;45.524;10.194;2024-02-23T09:04:06;98325.41;;;10.14;100.00
49759;BME280;70329;45.524;10.194;2024-02-23T09:06:35;98324.47;;;10.19;100.00
49759;BME280;70329;45.524;10.194;2024-02-23T09:09:02;98329.28;;;10.22;100.00
49759;BME280;70329;45.524;10.194;2024-02-23T09:11:28;98335.41;;;10.27;100.00
49759;BME280;70329;45.524;10.194;2024-02-23T09:13:55;98339.94;;;10.32;100.00
49759;BME280;70329;45.524;10.194;2024-02-23T09:16:23;98340.75;;;10.32;100.00
49759;BME280;70329;45.524;10.194;2024-02-23T09:18:50;98349.13;;;10.36;100.00
49759;BME280;70329;45.524;10.194;2024-02-23T09:21:16;98343.66;;;10.36;100.00
49759;BME280;70329;45.524;10.194;2024-02-23T09:23:43;98348.81;;;10.37;100.00
49759;BME280;70329;45.524;10.194;2024-02-23T09:26:09;98355.59;;;10.40;100.00
49759;BME280;70329;45.524;10.194;2024-02-23T09:28:37;98359.59;;;10.34;100.00
49759;BME280;70329;45.524;10.194;2024-02-23T09:31:06;98358.66;;;10.38;100.00
49759;BME280;70329;45.524;10.194;2024-02-23T09:33:34;98357.84;;;10.38;100.00
49759;BME280;70329;45.524;10.194;2024-02-23T09:36:00;98366.06;;;10.38;100.00
49759;BME280;70329;45.524;10.194;2024-02-23T09:38:27;98354.50;;;10.49;100.00
49759;BME280;70329;45.524;10.194;2024-02-23T09:40:53;98346.75;;;10.51;100.00
49759;BME280;70329;45.524;10.194;2024-02-23T09:43:21;98349.66;;;10.64;100.00
49759;BME280;70329;45.524;10.194;2024-02-23T09:45:50;98355.31;;;10.67;100.00
49759;BME280;70329;45.524;10.194;2024-02-23T09:48:18;98363.88;;;10.74;100.00
49759;BME280;70329;45.524;10.194;2024-02-23T09:50:47;98358.69;;;10.73;100.00
49759;BME280;70329;45.524;10.194;2024-02-23T09:53:14;98360.94;;;10.62;100.00
49759;BME280;70329;45.524;10.194;2024-02-23T09:55:42;98360.16;;;10.70;100.00
49759;BME280;70329;45.524;10.194;2024-02-23T09:58:12;98362.41;;;10.68;100.00
49759;BME280;70329;45.524;10.194;2024-02-23T10:00:39;98365.78;;;10.65;100.00
49759;BME280;70329;45.524;10.194;2024-02-23T10:03:06;98363.03;;;10.65;100.00
49759;BME280;70329;45.524;10.194;2024-02-23T10:05:33;98360.94;;;10.62;100.00
49759;BME280;70329;45.524;10.194;2024-02-23T10:08:00;98356.09;;;10.59;100.00
49759;BME280;70329;45.524;10.194;2024-02-23T10:10:33;98355.00;;;10.60;100.00
49759;BME280;70329;45.524;10.194;2024-02-23T10:13:00;98363.50;;;10.59;100.00
49759;BME280;70329;45.524;10.194;2024-02-23T10:15:28;98367.22;;;10.54;100.00
49759;BME280;70329;45.524;10.194;2024-02-23T10:17:55;98366.09;;;10.55;100.00
49759;BME280;70329;45.524;10.194;2024-02-23T10:20:22;98369.31;;;10.57;100.00
49759;BME280;70329;45.524;10.194;2024-02-23T10:22:49;98374.97;;;10.61;100.00
49759;BME280;70329;45.524;10.194;2024-02-23T10:25:20;98376.25;;;10.63;100.00
49759;BME280;70329;45.524;10.194;2024-02-23T10:27:46;98366.75;;;10.61;100.00
49759;BME280;70329;45.524;10.194;2024-02-23T10:30:13;98376.50;;;10.44;100.00
49759;BME280;70329;45.524;10.194;2024-02-23T10:32:41;98381.00;;;10.32;100.00
49759;BME280;70329;45.524;10.194;2024-02-23T10:35:11;98370.69;;;10.29;100.00
49759;BME280;70329;45.524;10.194;2024-02-23T10:37:41;98373.66;;;10.10;100.00
49759;BME280;70329;45.524;10.194;2024-02-23T10:40:11;98387.44;;;10.05;100.00
49759;BME280;70329;45.524;10.194;2024-02-23T10:42:40;98381.81;;;10.02;100.00
49759;BME280;70329;45.524;10.194;2024-02-23T10:45:10;98380.00;;;9.97;100.00
49759;BME280;70329;45.524;10.194;2024-02-23T10:47:36;98380.81;;;9.98;100.00
49759;BME280;70329;45.524;10.194;2024-02-23T10:50:04;98384.22;;;10.03;100.00
49759;BME280;70329;45.524;10.194;2024-02-23T10:52:33;98373.09;;;10.00;100.00
49759;BME280;70329;45.524;10.194;2024-02-23T10:55:00;98379.56;;;10.04;100.00
49759;BME280;70329;45.524;10.194;2024-02-23T10:57:31;98380.19;;;10.01;100.00
49759;BME280;70329;45.524;10.194;2024-02-23T11:00:00;98386.00;;;9.99;100.00
49759;BME280;70329;45.524;10.194;2024-02-23T11:02:28;98367.78;;;9.94;100.00
49759;BME280;70329;45.524;10.194;2024-02-23T11:04:57;98369.06;;;9.97;100.00
49759;BME280;70329;45.524;10.194;2024-02-23T11:07:25;98383.06;;;9.95;100.00
49759;BME280;70329;45.524;10.194;2024-02-23T11:09:53;98383.88;;;9.96;100.00
49759;BME280;70329;45.524;10.194;2024-02-23T11:12:24;98385.19;;;9.99;100.00
49759;BME280;70329;45.524;10.194;2024-02-23T11:14:51;98386.47;;;10.01;100.00
49759;BME280;70329;45.524;10.194;2024-02-23T11:17:19;98389.22;;;10.01;100.00
49759;BME280;70329;45.524;10.194;2024-02-23T11:19:49;98382.97;;;10.09;100.00
49759;BME280;70329;45.524;10.194;2024-02-23T11:22:24;98381.19;;;10.05;100.00
49759;BME280;70329;45.524;10.194;2024-02-23T11:24:52;98365.44;;;10.10;100.00
49759;BME280;70329;45.524;10.194;2024-02-23T11:27:19;98363.69;;;10.14;100.00
49759;BME280;70329;45.524;10.194;2024-02-23T11:29:46;98351.66;;;10.15;100.00
49759;BME280;70329;45.524;10.194;2024-02-23T11:32:14;98366.63;;;10.18;100.00
49759;BME280;70329;45.524;10.194;2024-02-23T11:34:54;98357.13;;;10.15;100.00
49759;BME280;70329;45.524;10.194;2024-02-23T11:37:23;98364.19;;;10.16;100.00
49759;BME280;70329;45.524;10.194;2024-02-23T11:39:54;98356.50;;;10.18;100.00
49759;BME280;70329;45.524;10.194;2024-02-23T11:42:23;98349.03;;;10.10;100.00
49759;BME280;70329;45.524;10.194;2024-02-23T11:44:50;98337.09;;;10.06;100.00
49759;BME280;70329;45.524;10.194;2024-02-23T11:47:19;98328.22;;;10.01;100.00
49759;BME280;70329;45.524;10.194;2024-02-23T11:49:47;98335.94;;;9.99;100.00
49759;BME280;70329;45.524;10.194;2024-02-23T11:52:13;98334.66;;;9.96;100.00
49759;BME280;70329;45.524;10.194;2024-02-23T11:54:40;98337.22;;;9.92;100.00
49759;BME280;70329;45.524;10.194;2024-02-23T11:57:07;98329.31;;;9.91;100.00
49759;BME280;70329;45.524;10.194;2024-02-23T11:59:33;98325.78;;;9.90;100.00
49759;BME280;70329;45.524;10.194;2024-02-23T12:02:00;98330.44;;;9.90;100.00
49759;BME280;70329;45.524;10.194;2024-02-23T12:04:27;98324.66;;;9.91;100.00
49759;BME280;70329;45.524;10.194;2024-02-23T12:06:56;98341.88;;;9.92;100.00
49759;BME280;70329;45.524;10.194;2024-02-23T12:09:22;98349.59;;;9.90;100.00
49759;BME280;70329;45.524;10.194;2024-02-23T12:11:49;98350.50;;;9.85;100.00
49759;BME280;70329;45.524;10.194;2024-02-23T12:14:16;98349.06;;;9.79;100.00
49759;BME280;70329;45.524;10.194;2024-02-23T12:16:43;98341.16;;;9.78;100.00
49759;BME280;70329;45.524;10.194;2024-02-23T12:19:11;98361.25;;;9.73;100.00
49759;BME280;70329;45.524;10.194;2024-02-23T12:21:38;98353.03;;;9.73;100.00
49759;BME280;70329;45.524;10.194;2024-02-23T12:24:06;98346.28;;;9.71;100.00
49759;BME280;70329;45.524;10.194;2024-02-23T12:26:33;98341.13;;;9.69;100.00
49759;BME280;70329;45.524;10.194;2024-02-23T12:29:00;98346.75;;;9.73;100.00
49759;BME280;70329;45.524;10.194;2024-02-23T12:31:28;98350.31;;;9.73;100.00
49759;BME280;70329;45.524;10.194;2024-02-23T12:33:57;98353.53;;;9.75;100.00
49759;BME280;70329;45.524;10.194;2024-02-23T12:36:24;98362.72;;;9.79;100.00
49759;BME280;70329;45.524;10.194;2024-02-23T12:38:50;98377.38;;;9.83;100.00
49759;BME280;70329;45.524;10.194;2024-02-23T12:41:18;98376.69;;;9.78;100.00
49759;BME280;70329;45.524;10.194;2024-02-23T12:43:45;98362.34;;;9.72;100.00